createdAt,value
2022-09-01T00:00:13.099Z,515.00
2022-09-01T00:01:08.097Z,513.00
2022-09-01T00:02:03.233Z,504.00
2022-09-01T00:02:58.330Z,507.00
2022-09-01T00:03:53.312Z,501.00
2022-09-01T00:04:48.464Z,505.00
2022-09-01T00:05:43.365Z,497.00
2022-09-01T00:06:38.427Z,493.00
2022-09-01T00:07:33.535Z,499.00
2022-09-01T00:08:28.593Z,498.00
2022-09-01T00:09:23.673Z,499.00
2022-09-01T00:10:18.799Z,501.00
2022-09-01T00:11:13.861Z,496.00
2022-09-01T00:12:08.984Z,498.00
2022-09-01T00:13:04.202Z,495.00
2022-09-01T00:13:59.350Z,497.00
2022-09-01T00:14:55.918Z,502.00
2022-09-01T00:15:51.019Z,500.00
2022-09-01T00:16:46.034Z,501.00
2022-09-01T00:17:41.160Z,497.00
2022-09-01T00:18:36.144Z,498.00
2022-09-01T00:19:31.253Z,498.00
2022-09-01T00:20:26.350Z,497.00
2022-09-01T00:21:21.351Z,497.00
2022-09-01T00:22:16.439Z,498.00
2022-09-01T00:23:11.571Z,497.00
2022-09-01T00:24:06.546Z,500.00
2022-09-01T00:25:01.705Z,497.00
2022-09-01T00:25:57.342Z,494.00
2022-09-01T00:26:52.548Z,492.00
2022-09-01T00:27:47.799Z,500.00
2022-09-01T00:28:43.595Z,498.00
2022-09-01T00:29:38.857Z,495.00
2022-09-01T00:30:34.775Z,493.00
2022-09-01T00:31:29.930Z,498.00
2022-09-01T00:32:25.340Z,498.00
2022-09-01T00:33:21.127Z,498.00
2022-09-01T00:34:16.487Z,486.00
2022-09-01T00:35:11.938Z,497.00
2022-09-01T00:36:08.559Z,495.00
2022-09-01T00:37:03.789Z,493.00
2022-09-01T00:37:59.614Z,497.00
2022-09-01T00:38:54.896Z,492.00
2022-09-01T00:39:50.257Z,496.00
2022-09-01T00:40:45.950Z,495.00
2022-09-01T00:41:41.170Z,494.00
2022-09-01T00:42:36.975Z,490.00
2022-09-01T00:43:32.185Z,493.00
2022-09-01T00:44:29.557Z,493.00
2022-09-01T00:45:23.256Z,491.00
2022-09-01T00:46:20.380Z,489.00
2022-09-01T00:47:13.776Z,494.00
2022-09-01T00:48:09.012Z,477.00
2022-09-01T00:49:04.957Z,491.00
2022-09-01T00:50:00.057Z,489.00
2022-09-01T00:50:55.450Z,485.00
2022-09-01T00:51:51.796Z,482.00
2022-09-01T00:52:47.020Z,497.00
2022-09-01T00:53:42.834Z,491.00
2022-09-01T00:54:38.045Z,489.00
2022-09-01T00:55:33.549Z,488.00
2022-09-01T00:56:29.260Z,492.00
2022-09-01T00:57:24.486Z,494.00
2022-09-01T00:58:20.334Z,485.00
2022-09-01T00:59:15.523Z,499.00
2022-09-01T01:00:10.904Z,492.00
2022-09-01T01:01:06.669Z,496.00
2022-09-01T01:02:01.903Z,497.00
2022-09-01T01:02:57.196Z,496.00
2022-09-01T01:03:53.445Z,490.00
2022-09-01T01:04:48.715Z,497.00
2022-09-01T01:05:44.509Z,494.00
2022-09-01T01:06:39.726Z,493.00
2022-09-01T01:07:34.976Z,487.00
2022-09-01T01:08:30.819Z,483.00
2022-09-01T01:09:26.072Z,485.00
2022-09-01T01:10:21.843Z,485.00
2022-09-01T01:11:17.055Z,491.00
2022-09-01T01:12:12.372Z,490.00
2022-09-01T01:13:07.589Z,488.00
2022-09-01T01:14:02.986Z,483.00
2022-09-01T01:14:58.663Z,492.00
2022-09-01T01:15:53.892Z,486.00
2022-09-01T01:16:49.791Z,484.00
2022-09-01T01:17:45.012Z,496.00
2022-09-01T01:18:40.552Z,496.00
2022-09-01T01:19:38.993Z,500.00
2022-09-01T01:20:31.543Z,492.00
2022-09-01T01:21:26.786Z,484.00
2022-09-01T01:22:23.095Z,491.00
2022-09-01T01:23:18.362Z,496.00
2022-09-01T01:24:14.160Z,497.00
2022-09-01T01:25:09.374Z,497.00
2022-09-01T01:26:04.629Z,497.00
2022-09-01T01:27:00.423Z,490.00
2022-09-01T01:27:55.680Z,492.00
2022-09-01T01:28:50.880Z,498.00
2022-09-01T01:29:46.195Z,493.00
2022-09-01T01:30:41.454Z,483.00
2022-09-01T01:31:36.550Z,490.00
2022-09-01T01:32:31.561Z,490.00
2022-09-01T01:33:26.669Z,496.00
2022-09-01T01:34:21.758Z,491.00
2022-09-01T01:35:16.888Z,490.00
2022-09-01T01:36:11.970Z,494.00
2022-09-01T01:37:07.076Z,487.00
2022-09-01T01:38:02.201Z,494.00
2022-09-01T01:38:57.309Z,486.00
2022-09-01T01:39:52.427Z,487.00
2022-09-01T01:40:47.597Z,487.00
2022-09-01T01:41:42.678Z,481.00
2022-09-01T01:42:37.777Z,487.00
2022-09-01T01:43:32.878Z,490.00
2022-09-01T01:44:28.023Z,486.00
2022-09-01T01:45:22.975Z,486.00
2022-09-01T01:46:18.158Z,495.00
2022-09-01T01:47:13.141Z,488.00
2022-09-01T01:48:08.226Z,488.00
2022-09-01T01:49:03.312Z,485.00
2022-09-01T01:49:58.413Z,487.00
2022-09-01T01:50:53.444Z,488.00
2022-09-01T01:51:48.540Z,483.00
2022-09-01T01:52:45.505Z,488.00
2022-09-01T01:53:43.852Z,486.00
2022-09-01T01:54:39.205Z,489.00
2022-09-01T01:55:34.401Z,490.00
2022-09-01T01:56:29.751Z,487.00
2022-09-01T01:57:25.011Z,492.00
2022-09-01T01:58:20.440Z,489.00
2022-09-01T01:59:15.461Z,487.00
2022-09-01T02:00:10.663Z,494.00
2022-09-01T02:01:06.011Z,487.00
2022-09-01T02:02:01.285Z,486.00
2022-09-01T02:02:56.717Z,489.00
2022-09-01T02:03:51.839Z,489.00
2022-09-01T02:04:47.060Z,483.00
2022-09-01T02:05:42.288Z,486.00
2022-09-01T02:06:37.502Z,477.00
2022-09-01T02:07:33.178Z,489.00
2022-09-01T02:08:28.828Z,487.00
2022-09-01T02:09:24.047Z,488.00
2022-09-01T02:10:19.304Z,483.00
2022-09-01T02:11:14.546Z,488.00
2022-09-01T02:12:09.747Z,484.00
2022-09-01T02:13:05.092Z,488.00
2022-09-01T02:14:00.456Z,484.00
2022-09-01T02:14:55.680Z,485.00
2022-09-01T02:15:50.928Z,487.00
2022-09-01T02:16:46.175Z,482.00
2022-09-01T02:17:41.463Z,482.00
2022-09-01T02:18:36.544Z,477.00
2022-09-01T02:19:31.783Z,480.00
2022-09-01T02:20:27.330Z,478.00
2022-09-01T02:21:22.284Z,482.00
2022-09-01T02:22:17.488Z,479.00
2022-09-01T02:23:12.720Z,474.00
2022-09-01T02:24:08.080Z,482.00
2022-09-01T02:25:03.283Z,487.00
2022-09-01T02:26:15.705Z,484.00
2022-09-01T02:26:54.775Z,484.00
2022-09-01T02:27:49.052Z,477.00
2022-09-01T02:28:44.382Z,481.00
2022-09-01T02:29:41.891Z,480.00
2022-09-01T02:30:34.941Z,484.00
2022-09-01T02:31:30.133Z,483.00
2022-09-01T02:32:25.511Z,480.00
2022-09-01T02:33:20.618Z,485.00
2022-09-01T02:34:15.826Z,481.00
2022-09-01T02:35:11.155Z,483.00
2022-09-01T02:36:06.083Z,479.00
2022-09-01T02:37:01.149Z,484.00
2022-09-01T02:37:56.238Z,480.00
2022-09-01T02:38:53.265Z,481.00
2022-09-01T02:39:46.399Z,493.00
2022-09-01T02:40:41.534Z,492.00
2022-09-01T02:41:36.519Z,492.00
2022-09-01T02:42:32.678Z,492.00
2022-09-01T02:43:27.790Z,495.00
2022-09-01T02:44:22.741Z,491.00
2022-09-01T02:45:17.836Z,489.00
2022-09-01T02:46:13.005Z,488.00
2022-09-01T02:47:07.996Z,484.00
2022-09-01T02:48:03.063Z,480.00
2022-09-01T02:48:58.185Z,487.00
2022-09-01T02:49:53.288Z,486.00
2022-09-01T02:50:48.387Z,483.00
2022-09-01T02:51:43.636Z,489.00
2022-09-01T02:52:38.859Z,484.00
2022-09-01T02:53:34.187Z,486.00
2022-09-01T02:54:29.596Z,485.00
2022-09-01T02:55:24.673Z,488.00
2022-09-01T02:56:20.166Z,488.00
2022-09-01T02:57:16.291Z,497.00
2022-09-01T02:58:10.541Z,487.00
2022-09-01T02:59:06.001Z,493.00
2022-09-01T03:00:01.201Z,489.00
2022-09-01T03:00:56.464Z,487.00
2022-09-01T03:01:51.703Z,482.00
2022-09-01T03:02:46.924Z,479.00
2022-09-01T03:03:42.129Z,483.00
2022-09-01T03:04:37.457Z,487.00
2022-09-01T03:05:32.691Z,485.00
2022-09-01T03:06:28.073Z,478.00
2022-09-01T03:07:23.157Z,487.00
2022-09-01T03:08:18.498Z,489.00
2022-09-01T03:09:13.851Z,491.00
2022-09-01T03:10:08.930Z,484.00
2022-09-01T03:11:04.125Z,485.00
2022-09-01T03:11:59.363Z,494.00
2022-09-01T03:12:54.718Z,491.00
2022-09-01T03:13:49.961Z,496.00
2022-09-01T03:14:45.198Z,498.00
2022-09-01T03:15:40.436Z,496.00
2022-09-01T03:16:35.726Z,494.00
2022-09-01T03:17:30.954Z,494.00
2022-09-01T03:18:26.168Z,497.00
2022-09-01T03:19:21.438Z,493.00
2022-09-01T03:20:16.643Z,487.00
2022-09-01T03:21:12.014Z,497.00
2022-09-01T03:22:07.107Z,499.00
2022-09-01T03:23:02.328Z,494.00
2022-09-01T03:23:57.764Z,491.00
2022-09-01T03:24:52.856Z,496.00
2022-09-01T03:25:48.216Z,499.00
2022-09-01T03:26:43.315Z,498.00
2022-09-01T03:27:38.551Z,505.00
2022-09-01T03:28:33.843Z,496.00
2022-09-01T03:29:29.084Z,497.00
2022-09-01T03:30:24.285Z,499.00
2022-09-01T03:31:19.580Z,495.00
2022-09-01T03:32:14.821Z,502.00
2022-09-01T03:33:10.071Z,496.00
2022-09-01T03:34:05.469Z,500.00
2022-09-01T03:35:00.530Z,496.00
2022-09-01T03:35:55.819Z,492.00
2022-09-01T03:36:51.046Z,493.00
2022-09-01T03:37:46.370Z,499.00
2022-09-01T03:38:41.598Z,503.00
2022-09-01T03:39:36.830Z,503.00
2022-09-01T03:40:31.976Z,502.00
2022-09-01T03:41:26.959Z,495.00
2022-09-01T03:42:21.949Z,501.00
2022-09-01T03:43:17.068Z,488.00
2022-09-01T03:44:12.131Z,496.00
2022-09-01T03:45:07.252Z,501.00
2022-09-01T03:46:02.475Z,500.00
2022-09-01T03:46:57.364Z,498.00
2022-09-01T03:47:52.447Z,495.00
2022-09-01T03:48:47.568Z,496.00
2022-09-01T03:49:42.664Z,496.00
2022-09-01T03:50:37.745Z,503.00
2022-09-01T03:51:32.847Z,494.00
2022-09-01T03:52:27.834Z,503.00
2022-09-01T03:53:22.894Z,503.00
2022-09-01T03:54:18.005Z,499.00
2022-09-01T03:55:13.069Z,501.00
2022-09-01T03:56:08.126Z,499.00
2022-09-01T03:57:03.263Z,502.00
2022-09-01T03:57:58.486Z,499.00
2022-09-01T03:58:53.917Z,503.00
2022-09-01T03:59:49.013Z,509.00
2022-09-01T04:00:44.947Z,506.00
2022-09-01T04:01:39.631Z,500.00
2022-09-01T04:02:34.810Z,512.00
2022-09-01T04:03:31.153Z,518.00
2022-09-01T04:04:25.223Z,516.00
2022-09-01T04:05:20.506Z,524.00
2022-09-01T04:06:15.799Z,514.00
2022-09-01T04:07:10.980Z,508.00
2022-09-01T04:08:07.194Z,520.00
2022-09-01T04:09:01.420Z,511.00
2022-09-01T04:09:56.710Z,519.00
2022-09-01T04:10:54.374Z,511.00
2022-09-01T04:11:47.241Z,525.00
2022-09-01T04:12:42.412Z,511.00
2022-09-01T04:13:38.842Z,517.00
2022-09-01T04:14:34.007Z,509.00
2022-09-01T04:15:29.290Z,513.00
2022-09-01T04:16:24.540Z,512.00
2022-09-01T04:17:19.667Z,512.00
2022-09-01T04:18:14.705Z,507.00
2022-09-01T04:19:09.741Z,514.00
2022-09-01T04:20:04.762Z,510.00
2022-09-01T04:20:59.941Z,505.00
2022-09-01T04:21:55.140Z,506.00
2022-09-01T04:22:50.206Z,505.00
2022-09-01T04:23:45.217Z,505.00
2022-09-01T04:24:43.260Z,503.00
2022-09-01T04:25:35.283Z,512.00
2022-09-01T04:26:30.466Z,506.00
2022-09-01T04:27:25.758Z,508.00
2022-09-01T04:28:21.301Z,512.00
2022-09-01T04:29:16.946Z,504.00
2022-09-01T04:30:12.245Z,508.00
2022-09-01T04:31:07.533Z,509.00
2022-09-01T04:32:04.167Z,509.00
2022-09-01T04:32:59.205Z,498.00
2022-09-01T04:33:55.023Z,495.00
2022-09-01T04:34:50.340Z,500.00
2022-09-01T04:35:45.633Z,501.00
2022-09-01T04:36:41.373Z,492.00
2022-09-01T04:37:36.642Z,490.00
2022-09-01T04:38:32.521Z,483.00
2022-09-01T04:39:27.738Z,494.00
2022-09-01T04:40:23.298Z,494.00
2022-09-01T04:41:19.083Z,488.00
2022-09-01T04:42:14.409Z,492.00
2022-09-01T04:43:09.905Z,494.00
2022-09-01T04:44:06.160Z,498.00
2022-09-01T04:45:02.472Z,500.00
2022-09-01T04:45:58.462Z,504.00
2022-09-01T04:46:52.858Z,501.00
2022-09-01T04:47:48.315Z,500.00
2022-09-01T04:48:44.053Z,501.00
2022-09-01T04:49:39.440Z,502.00
2022-09-01T04:50:35.399Z,502.00
2022-09-01T04:51:30.679Z,504.00
2022-09-01T04:52:26.078Z,504.00
2022-09-01T04:53:21.790Z,495.00
2022-09-01T04:54:18.169Z,505.00
2022-09-01T04:55:12.636Z,496.00
2022-09-01T04:56:07.777Z,504.00
2022-09-01T04:57:02.747Z,498.00
2022-09-01T04:57:57.745Z,499.00
2022-09-01T04:58:52.857Z,506.00
2022-09-01T04:59:47.845Z,498.00
2022-09-01T05:00:43.064Z,495.00
2022-09-01T05:01:38.054Z,496.00
2022-09-01T05:02:39.158Z,495.00
2022-09-01T05:03:34.520Z,496.00
2022-09-01T05:04:29.902Z,499.00
2022-09-01T05:05:25.930Z,496.00
2022-09-01T05:06:21.215Z,485.00
2022-09-01T05:07:16.795Z,490.00
2022-09-01T05:08:13.063Z,494.00
2022-09-01T05:09:08.511Z,494.00
2022-09-01T05:10:04.204Z,493.00
2022-09-01T05:10:59.617Z,491.00
2022-09-01T05:11:55.144Z,503.00
2022-09-01T05:12:50.713Z,508.00
2022-09-01T05:13:46.100Z,519.00
2022-09-01T05:14:41.912Z,500.00
2022-09-01T05:15:37.362Z,498.00
2022-09-01T05:16:32.803Z,503.00
2022-09-01T05:17:28.505Z,499.00
2022-09-01T05:18:23.955Z,501.00
2022-09-01T05:19:19.419Z,491.00
2022-09-01T05:20:15.697Z,493.00
2022-09-01T05:21:11.254Z,497.00
2022-09-01T05:22:06.946Z,510.00
2022-09-01T05:23:02.389Z,504.00
2022-09-01T05:23:57.847Z,503.00
2022-09-01T05:24:55.463Z,498.00
2022-09-01T05:25:49.022Z,507.00
2022-09-01T05:26:44.418Z,503.00
2022-09-01T05:27:39.789Z,497.00
2022-09-01T05:28:35.642Z,497.00
2022-09-01T05:29:31.215Z,599.00
2022-09-01T05:30:26.589Z,527.00
2022-09-01T05:31:22.504Z,581.00
2022-09-01T05:32:17.900Z,511.00
2022-09-01T05:33:13.841Z,588.00
2022-09-01T05:34:09.106Z,546.00
2022-09-01T05:35:04.536Z,520.00
2022-09-01T05:36:00.264Z,538.00
2022-09-01T05:36:55.718Z,538.00
2022-09-01T05:37:51.166Z,539.00
2022-09-01T05:38:47.456Z,519.00
2022-09-01T05:39:42.901Z,511.00
2022-09-01T05:40:38.853Z,509.00
2022-09-01T05:41:34.253Z,501.00
2022-09-01T05:42:29.675Z,519.00
2022-09-01T05:44:37.142Z,514.00
2022-09-01T05:45:50.118Z,513.00
2022-09-01T05:46:28.878Z,510.00
2022-09-01T05:47:23.383Z,509.00
2022-09-01T05:48:19.084Z,513.00
2022-09-01T05:49:14.418Z,498.00
2022-09-01T05:50:14.033Z,532.00
2022-09-01T05:51:05.368Z,499.00
2022-09-01T05:52:00.819Z,506.00
2022-09-01T05:52:56.424Z,514.00
2022-09-01T05:53:51.846Z,513.00
2022-09-01T05:54:47.291Z,512.00
2022-09-01T05:55:42.722Z,506.00
2022-09-01T05:56:42.651Z,505.00
2022-09-01T05:57:35.230Z,498.00
2022-09-01T05:59:22.471Z,505.00
2022-09-01T05:59:26.200Z,500.00
2022-09-01T06:00:20.108Z,496.00
2022-09-01T06:01:15.526Z,510.00
2022-09-01T06:02:11.178Z,498.00
2022-09-01T06:03:06.564Z,501.00
2022-09-01T06:04:01.866Z,499.00
2022-09-01T06:04:57.526Z,492.00
2022-09-01T06:05:52.763Z,501.00
2022-09-01T06:07:05.930Z,495.00
2022-09-01T06:07:44.739Z,504.00
2022-09-01T06:08:39.164Z,500.00
2022-09-01T06:09:34.562Z,505.00
2022-09-01T06:10:30.208Z,505.00
2022-09-01T06:11:25.626Z,513.00
2022-09-01T06:12:21.063Z,502.00
2022-09-01T06:13:16.652Z,498.00
2022-09-01T06:14:12.005Z,495.00
2022-09-01T06:15:07.630Z,497.00
2022-09-01T06:16:03.063Z,491.00
2022-09-01T06:16:58.544Z,497.00
2022-09-01T06:17:54.289Z,496.00
2022-09-01T06:18:49.737Z,498.00
2022-09-01T06:19:45.340Z,505.00
2022-09-01T06:20:40.799Z,520.00
2022-09-01T06:21:36.224Z,510.00
2022-09-01T06:22:31.639Z,505.00
2022-09-01T06:23:27.153Z,497.00
2022-09-01T06:24:22.730Z,491.00
2022-09-01T06:25:18.160Z,492.00
2022-09-01T06:26:13.623Z,502.00
2022-09-01T06:27:09.077Z,498.00
2022-09-01T06:28:04.508Z,503.00
2022-09-01T06:29:00.027Z,505.00
2022-09-01T06:29:55.444Z,498.00
2022-09-01T06:30:51.030Z,494.00
2022-09-01T06:31:46.520Z,492.00
2022-09-01T06:32:41.881Z,490.00
2022-09-01T06:33:37.414Z,503.00
2022-09-01T06:34:32.766Z,498.00
2022-09-01T06:35:28.193Z,493.00
2022-09-01T06:36:23.647Z,497.00
2022-09-01T06:37:19.072Z,497.00
2022-09-01T06:38:14.534Z,489.00
2022-09-01T06:39:09.995Z,500.00
2022-09-01T06:40:05.502Z,492.00
2022-09-01T06:41:00.943Z,494.00
2022-09-01T06:41:56.392Z,491.00
2022-09-01T06:42:51.816Z,493.00
2022-09-01T06:43:47.366Z,488.00
2022-09-01T06:44:42.622Z,495.00
2022-09-01T06:45:38.090Z,495.00
2022-09-01T06:46:33.764Z,494.00
2022-09-01T06:47:29.142Z,497.00
2022-09-01T06:48:24.591Z,495.00
2022-09-01T06:49:20.051Z,503.00
2022-09-01T06:51:14.986Z,499.00
2022-09-01T06:51:16.888Z,500.00
2022-09-01T06:52:07.443Z,504.00
2022-09-01T06:53:58.348Z,500.00
2022-09-01T06:54:52.804Z,493.00
2022-09-01T06:55:48.216Z,499.00
2022-09-01T06:56:45.002Z,491.00
2022-09-01T06:58:36.425Z,498.00
2022-09-01T06:59:34.042Z,489.00
2022-09-01T07:00:26.647Z,484.00
2022-09-01T07:01:20.783Z,486.00
2022-09-01T07:02:17.472Z,479.00
2022-09-01T07:03:11.640Z,485.00
2022-09-01T07:04:12.867Z,490.00
2022-09-01T07:05:03.819Z,487.00
2022-09-01T07:06:01.365Z,480.00
2022-09-01T07:07:53.356Z,485.00
2022-09-01T07:08:05.825Z,491.00
2022-09-01T07:09:50.078Z,489.00
2022-09-01T07:11:19.555Z,492.00
2022-09-01T07:13:22.800Z,485.00
2022-09-01T07:14:17.353Z,482.00
2022-09-01T07:18:00.209Z,483.00
2022-09-01T07:19:01.072Z,485.00
2022-09-01T07:19:51.250Z,481.00
2022-09-01T07:22:06.577Z,488.00
2022-09-01T07:23:02.999Z,475.00
2022-09-01T07:24:31.805Z,481.00
2022-09-01T07:25:22.869Z,480.00
2022-09-01T07:26:24.633Z,484.00
2022-09-01T07:27:14.892Z,484.00
2022-09-01T07:28:09.400Z,480.00
2022-09-01T07:29:06.079Z,479.00
2022-09-01T07:30:00.156Z,481.00
2022-09-01T07:30:55.656Z,480.00
2022-09-01T07:32:41.199Z,475.00
2022-09-01T07:32:48.027Z,481.00
2022-09-01T07:33:43.720Z,485.00
2022-09-01T07:34:38.830Z,481.00
2022-09-01T07:35:33.487Z,483.00
2022-09-01T07:36:29.379Z,481.00
2022-09-01T07:42:56.129Z,479.00
2022-09-01T07:43:53.456Z,479.00
2022-09-01T07:44:47.957Z,484.00
2022-09-01T07:45:59.497Z,477.00
2022-09-01T07:46:40.071Z,482.00
2022-09-01T07:49:02.449Z,482.00
2022-09-01T07:49:32.292Z,478.00
2022-09-01T07:50:39.824Z,483.00
2022-09-01T07:52:13.106Z,483.00
2022-09-01T07:53:07.616Z,481.00
2022-09-01T07:54:03.020Z,481.00
2022-09-01T07:54:58.651Z,478.00
2022-09-01T07:55:54.035Z,471.00
2022-09-01T07:56:49.551Z,486.00
2022-09-01T07:57:45.150Z,472.00
2022-09-01T07:58:40.700Z,477.00
2022-09-01T07:59:36.345Z,474.00
2022-09-01T08:00:31.817Z,478.00
2022-09-01T08:01:26.992Z,472.00
2022-09-01T08:02:22.491Z,475.00
2022-09-01T08:03:18.114Z,480.00
2022-09-01T08:04:13.404Z,468.00
2022-09-01T08:05:08.881Z,469.00
2022-09-01T08:06:04.408Z,473.00
2022-09-01T08:06:59.826Z,472.00
2022-09-01T08:07:55.384Z,474.00
2022-09-01T08:08:57.035Z,476.00
2022-09-01T08:09:47.355Z,475.00
2022-09-01T08:10:41.887Z,477.00
2022-09-01T08:12:01.199Z,476.00
2022-09-01T08:12:33.972Z,470.00
2022-09-01T08:13:28.458Z,474.00
2022-09-01T08:14:24.175Z,482.00
2022-09-01T08:16:17.878Z,478.00
2022-09-01T08:17:33.008Z,493.00
2022-09-01T08:18:06.839Z,482.00
2022-09-01T08:19:01.314Z,483.00
2022-09-01T08:19:56.661Z,484.00
2022-09-01T08:20:52.122Z,483.00
2022-09-01T08:21:47.543Z,479.00
2022-09-01T08:22:43.030Z,477.00
2022-09-01T08:23:38.823Z,480.00
2022-09-01T08:24:33.831Z,479.00
2022-09-01T08:25:29.233Z,479.00
2022-09-01T08:26:24.667Z,483.00
2022-09-01T08:27:19.911Z,481.00
2022-09-01T08:28:15.395Z,483.00
2022-09-01T08:29:10.935Z,479.00
2022-09-01T08:30:06.414Z,479.00
2022-09-01T08:31:01.987Z,483.00
2022-09-01T08:31:58.686Z,485.00
2022-09-01T08:32:52.763Z,481.00
2022-09-01T08:33:48.266Z,484.00
2022-09-01T08:34:43.889Z,482.00
2022-09-01T08:35:39.380Z,480.00
2022-09-01T08:36:35.571Z,482.00
2022-09-01T08:37:30.290Z,478.00
2022-09-01T08:38:25.719Z,486.00
2022-09-01T08:39:21.189Z,484.00
2022-09-01T08:40:16.755Z,489.00
2022-09-01T08:41:12.061Z,489.00
2022-09-01T08:42:08.655Z,490.00
2022-09-01T08:43:03.037Z,481.00
2022-09-01T08:43:58.436Z,476.00
2022-09-01T08:44:53.824Z,484.00
2022-09-01T08:45:49.223Z,487.00
2022-09-01T08:46:44.859Z,483.00
2022-09-01T08:48:04.608Z,486.00
2022-09-01T08:49:23.752Z,479.00
2022-09-01T08:49:42.908Z,485.00
2022-09-01T08:50:27.760Z,495.00
2022-09-01T08:51:22.215Z,501.00
2022-09-01T08:52:17.736Z,493.00
2022-09-01T08:53:13.136Z,493.00
2022-09-01T08:54:08.591Z,490.00
2022-09-01T08:55:04.200Z,493.00
2022-09-01T08:55:59.684Z,496.00
2022-09-01T08:56:55.156Z,492.00
2022-09-01T08:57:50.656Z,488.00
2022-09-01T08:58:46.092Z,492.00
2022-09-01T08:59:41.553Z,490.00
2022-09-01T09:00:37.177Z,492.00
2022-09-01T09:01:32.555Z,493.00
2022-09-01T09:02:28.081Z,485.00
2022-09-01T09:03:23.444Z,490.00
2022-09-01T09:04:18.903Z,490.00
2022-09-01T09:05:15.813Z,493.00
2022-09-01T09:06:09.802Z,492.00
2022-09-01T09:07:05.354Z,492.00
2022-09-01T09:08:08.034Z,502.00
2022-09-01T09:08:57.285Z,497.00
2022-09-01T09:09:54.193Z,493.00
2022-09-01T09:10:47.141Z,489.00
2022-09-01T09:11:42.788Z,493.00
2022-09-01T09:12:49.035Z,486.00
2022-09-01T09:13:34.826Z,489.00
2022-09-01T09:14:29.502Z,493.00
2022-09-01T09:15:24.985Z,495.00
2022-09-01T09:16:20.593Z,493.00
2022-09-01T09:17:16.100Z,499.00
2022-09-01T09:18:20.048Z,486.00
2022-09-01T09:19:07.999Z,491.00
2022-09-01T09:20:02.679Z,488.00
2022-09-01T09:20:58.157Z,499.00
2022-09-01T09:21:54.150Z,496.00
2022-09-01T09:22:49.189Z,493.00
2022-09-01T09:23:44.794Z,489.00
2022-09-01T09:24:40.420Z,490.00
2022-09-01T09:25:35.775Z,489.00
2022-09-01T09:26:42.174Z,489.00
2022-09-01T09:27:27.726Z,489.00
2022-09-01T09:28:22.398Z,489.00
2022-09-01T09:29:17.897Z,486.00
2022-09-01T09:30:13.509Z,491.00
2022-09-01T09:31:09.046Z,486.00
2022-09-01T09:32:04.549Z,490.00
2022-09-01T09:33:30.805Z,484.00
2022-09-01T09:33:56.870Z,485.00
2022-09-01T09:34:51.193Z,485.00
2022-09-01T09:35:46.688Z,483.00
2022-09-01T09:36:42.103Z,484.00
2022-09-01T09:37:37.514Z,485.00
2022-09-01T09:38:33.775Z,490.00
2022-09-01T09:39:29.524Z,492.00
2022-09-01T09:40:25.356Z,493.00
2022-09-01T09:41:25.756Z,489.00
2022-09-01T09:42:16.270Z,493.00
2022-09-01T09:43:10.682Z,489.00
2022-09-01T09:44:06.210Z,488.00
2022-09-01T09:45:01.852Z,486.00
2022-09-01T09:45:58.588Z,494.00
2022-09-01T09:46:52.939Z,493.00
2022-09-01T09:47:48.522Z,498.00
2022-09-01T09:48:44.053Z,494.00
2022-09-01T09:49:44.281Z,492.00
2022-09-01T09:50:35.907Z,488.00
2022-09-01T09:51:30.454Z,489.00
2022-09-01T09:52:25.990Z,488.00
2022-09-01T09:53:21.499Z,487.00
2022-09-01T09:54:16.891Z,494.00
2022-09-01T09:55:12.431Z,494.00
2022-09-01T09:56:07.685Z,498.00
2022-09-01T09:57:04.754Z,494.00
2022-09-01T09:57:58.668Z,495.00
2022-09-01T09:58:54.187Z,493.00
2022-09-01T10:00:04.840Z,487.00
2022-09-01T10:00:46.251Z,492.00
2022-09-01T10:01:40.705Z,492.00
2022-09-01T10:02:36.207Z,488.00
2022-09-01T10:03:31.628Z,493.00
2022-09-01T10:04:27.073Z,492.00
2022-09-01T10:05:22.524Z,492.00
2022-09-01T10:06:18.069Z,498.00
2022-09-01T10:07:13.606Z,494.00
2022-09-01T10:08:09.046Z,488.00
2022-09-01T10:09:04.656Z,489.00
2022-09-01T10:10:00.140Z,484.00
2022-09-01T10:10:58.497Z,489.00
2022-09-01T10:11:50.947Z,492.00
2022-09-01T10:12:46.413Z,483.00
2022-09-01T10:13:42.030Z,489.00
2022-09-01T10:14:52.096Z,491.00
2022-09-01T10:15:33.779Z,494.00
2022-09-01T10:16:28.191Z,496.00
2022-09-01T10:17:24.617Z,494.00
2022-09-01T10:18:21.057Z,490.00
2022-09-01T10:19:16.348Z,489.00
2022-09-01T10:20:11.453Z,488.00
2022-09-01T10:21:05.842Z,483.00
2022-09-01T10:22:01.371Z,485.00
2022-09-01T10:22:56.761Z,492.00
2022-09-01T10:23:52.145Z,487.00
2022-09-01T10:24:50.542Z,488.00
2022-09-01T10:25:43.231Z,491.00
2022-09-01T10:26:38.860Z,489.00
2022-09-01T10:27:34.312Z,488.00
2022-09-01T10:28:29.830Z,493.00
2022-09-01T10:29:25.431Z,494.00
2022-09-01T10:30:20.923Z,490.00
2022-09-01T10:31:16.438Z,494.00
2022-09-01T10:32:31.452Z,496.00
2022-09-01T10:33:19.225Z,501.00
2022-09-01T10:34:05.451Z,491.00
2022-09-01T10:35:02.953Z,494.00
2022-09-01T10:35:53.927Z,491.00
2022-09-01T10:36:54.909Z,493.00
2022-09-01T10:37:45.987Z,490.00
2022-09-01T10:38:40.390Z,490.00
2022-09-01T10:39:40.870Z,491.00
2022-09-01T10:40:32.376Z,485.00
2022-09-01T10:41:26.997Z,488.00
2022-09-01T10:42:22.516Z,487.00
2022-09-01T10:43:18.030Z,492.00
2022-09-01T10:44:13.437Z,506.00
2022-09-01T10:45:08.824Z,486.00
2022-09-01T10:46:05.834Z,487.00
2022-09-01T10:47:02.056Z,500.00
2022-09-01T10:47:55.898Z,494.00
2022-09-01T10:48:55.318Z,488.00
2022-09-01T10:49:47.837Z,489.00
2022-09-01T10:50:42.384Z,488.00
2022-09-01T10:51:38.805Z,494.00
2022-09-01T10:52:33.123Z,483.00
2022-09-01T10:53:28.686Z,478.00
2022-09-01T10:54:24.140Z,481.00
2022-09-01T10:55:24.569Z,480.00
2022-09-01T10:56:28.151Z,476.00
2022-09-01T10:57:12.275Z,482.00
2022-09-01T10:59:30.112Z,476.00
2022-09-01T10:59:58.136Z,475.00
2022-09-01T11:01:49.859Z,485.00
2022-09-01T11:02:46.871Z,517.00
2022-09-01T11:03:42.006Z,486.00
2022-09-01T11:04:35.561Z,480.00
2022-09-01T11:05:33.246Z,490.00
2022-09-01T11:06:33.191Z,480.00
2022-09-01T11:07:49.556Z,482.00
2022-09-01T11:08:17.434Z,477.00
2022-09-01T11:09:12.036Z,478.00
2022-09-01T11:10:11.341Z,478.00
2022-09-01T11:11:02.945Z,477.00
2022-09-01T11:11:58.300Z,479.00
2022-09-01T11:12:53.731Z,472.00
2022-09-01T11:13:50.134Z,476.00
2022-09-01T11:14:44.670Z,476.00
2022-09-01T11:15:40.118Z,476.00
2022-09-01T11:16:50.844Z,477.00
2022-09-01T11:17:32.282Z,471.00
2022-09-01T11:18:27.387Z,481.00
2022-09-01T11:19:22.164Z,479.00
2022-09-01T11:20:18.153Z,476.00
2022-09-01T11:21:13.280Z,481.00
2022-09-01T11:22:08.751Z,482.00
2022-09-01T11:23:04.250Z,478.00
2022-09-01T11:23:59.703Z,478.00
2022-09-01T11:25:00.322Z,475.00
2022-09-01T11:26:47.205Z,479.00
2022-09-01T11:27:41.619Z,478.00
2022-09-01T11:28:37.267Z,476.00
2022-09-01T11:29:32.768Z,477.00
2022-09-01T11:30:28.297Z,477.00
2022-09-01T11:31:23.758Z,478.00
2022-09-01T11:32:19.152Z,479.00
2022-09-01T11:33:14.602Z,483.00
2022-09-01T11:34:10.074Z,485.00
2022-09-01T11:35:05.475Z,488.00
2022-09-01T11:36:00.866Z,485.00
2022-09-01T11:36:56.404Z,483.00
2022-09-01T11:37:52.026Z,486.00
2022-09-01T11:38:47.455Z,493.00
2022-09-01T11:39:42.871Z,488.00
2022-09-01T11:40:38.442Z,484.00
2022-09-01T11:41:33.849Z,485.00
2022-09-01T11:42:29.211Z,485.00
2022-09-01T11:43:24.602Z,484.00
2022-09-01T11:44:20.120Z,483.00
2022-09-01T11:45:20.814Z,485.00
2022-09-01T11:46:12.219Z,437.00
2022-09-01T11:47:09.572Z,441.00
2022-09-01T11:48:03.257Z,438.00
2022-09-01T11:48:57.683Z,440.00
2022-09-01T11:49:53.221Z,435.00
2022-09-01T11:50:48.873Z,438.00
2022-09-01T11:51:44.283Z,441.00
2022-09-01T11:52:39.629Z,438.00